Time;durP1;ratioP1;P1;durP2;ratioP2;P2;SDS_P1;SDS_P2;PMS_P1;PMS_P2;Temp;Humidity;BMP_temperature;BMP_pressure;BME280_temperature;BME280_humidity;BME280_pressure;Samples;Min_cycle;Max_cycle;Signal;HPM_P1;HPM_P2
2024/02/19 00:00:43;;;;;;;;;0.67;0.33;;;;;23.02;46.71;103028.44;6400504;22;45421;-75
2024/02/19 00:03:09;;;;;;;;;2.33;1.33;;;;;23.02;46.48;103028.44;6400021;22;46208;-74
2024/02/19 00:05:34;;;;;;;;;1.33;1.33;;;;;23.01;46.98;103015.28;6400835;22;45242;-74
2024/02/19 00:07:59;;;;;;;;;1.00;1.00;;;;;23.03;46.71;103024.78;6400255;22;48695;-74
2024/02/19 00:10:24;;;;;;;;;2.00;0.33;;;;;23.03;46.40;103019.47;6372032;22;45438;-74
2024/02/19 00:12:50;;;;;;;;;1.00;1.00;;;;;23.01;46.64;103015.28;6400606;22;45291;-75
2024/02/19 00:15:16;;;;;;;;;1.00;1.00;;;;;23.02;46.48;103020.47;6400802;22;45281;-74
2024/02/19 00:17:41;;;;;;;;;1.67;1.00;;;;;22.91;46.86;103007.28;6400321;22;45174;-75
2024/02/19 00:20:07;;;;;;;;;3.00;2.00;;;;;23.02;46.99;103014.31;6400765;22;45342;-75
2024/02/19 00:22:33;;;;;;;;;1.67;1.67;;;;;23.01;46.79;103017.91;6400152;22;47207;-74
2024/02/19 00:24:58;;;;;;;;;1.67;1.67;;;;;23.01;46.73;103012.63;6400436;22;45266;-74
2024/02/19 00:27:24;;;;;;;;;1.00;1.00;;;;;23.00;46.47;103016.25;6400480;22;45312;-74
2024/02/19 00:29:49;;;;;;;;;0.00;0.00;;;;;22.99;46.58;103011.91;6400749;22;45339;-74
2024/02/19 00:32:14;;;;;;;;;1.33;1.33;;;;;22.99;46.99;103020.72;6400202;22;45334;-74
2024/02/19 00:34:43;;;;;;;;;2.33;1.00;;;;;22.96;46.61;103019.19;6400645;22;45306;-74
2024/02/19 00:37:10;;;;;;;;;2.00;0.00;;;;;22.98;46.47;103023.53;6400395;22;45289;-74
2024/02/19 00:39:36;;;;;;;;;1.00;1.00;;;;;22.97;46.36;103009.41;6400269;22;45441;-74
2024/02/19 00:42:02;;;;;;;;;2.00;2.00;;;;;22.98;46.73;103007.59;6399783;22;47328;-74
2024/02/19 00:44:27;;;;;;;;;2.00;1.00;;;;;22.97;46.78;103004.09;6400251;22;45271;-74
2024/02/19 00:46:52;;;;;;;;;1.00;1.00;;;;;22.67;46.25;102960.63;6399657;22;45251;-74
2024/02/19 00:49:18;;;;;;;;;2.00;1.00;;;;;22.88;46.37;102989.81;6400692;22;45328;-74
2024/02/19 00:51:43;;;;;;;;;1.00;1.00;;;;;22.95;46.71;103009.53;6400073;22;49476;-75
2024/02/19 00:54:08;;;;;;;;;2.00;0.67;;;;;22.95;46.46;103017.47;6371613;22;45268;-74
2024/02/19 00:56:33;;;;;;;;;1.00;1.00;;;;;22.95;46.92;103024.63;6400542;22;45240;-75
2024/02/19 00:58:59;;;;;;;;;2.33;1.00;;;;;22.95;46.93;103021.97;6400296;22;45247;-74
2024/02/19 01:01:25;;;;;;;;;1.00;1.00;;;;;22.94;46.56;103023.78;6399523;22;46530;-74
2024/02/19 01:03:50;;;;;;;;;1.33;0.00;;;;;22.89;46.18;103020.69;6400309;22;45294;-74
2024/02/19 01:06:15;;;;;;;;;3.00;1.00;;;;;22.81;46.69;103002.78;6400053;22;45254;-74
2024/02/19 01:08:41;;;;;;;;;1.67;1.67;;;;;22.94;46.84;103018.47;6400192;22;45275;-74
2024/02/19 01:11:06;;;;;;;;;1.33;1.00;;;;;22.93;46.76;103013.28;6399836;22;46938;-74
2024/02/19 01:13:32;;;;;;;;;1.00;1.00;;;;;22.94;46.69;103014.97;6400689;22;45233;-74
2024/02/19 01:15:57;;;;;;;;;2.00;2.00;;;;;22.91;46.29;103015.25;6399677;22;45265;-74
2024/02/19 01:18:22;;;;;;;;;2.00;1.67;;;;;22.93;46.38;103024.75;6371814;22;45252;-74
2024/02/19 01:20:48;;;;;;;;;2.00;2.00;;;;;22.93;46.49;103030.06;6400348;22;45314;-74
2024/02/19 01:23:13;;;;;;;;;2.00;2.00;;;;;22.87;46.53;103019.16;6399528;22;49824;-74
2024/02/19 01:25:40;;;;;;;;;1.67;1.00;;;;;22.93;46.20;103029.22;6400000;22;49074;-74
2024/02/19 01:28:06;;;;;;;;;0.00;0.00;;;;;22.93;46.73;103032.72;6400275;22;45405;-74
2024/02/19 01:30:31;;;;;;;;;1.00;0.33;;;;;22.92;46.69;103036.34;6399701;22;46034;-74
2024/02/19 01:32:57;;;;;;;;;1.00;1.00;;;;;22.93;46.83;103035.38;6400150;22;45330;-74
2024/02/19 01:35:22;;;;;;;;;3.00;1.00;;;;;22.93;46.00;103034.53;6399972;22;45283;-74
2024/02/19 01:37:47;;;;;;;;;1.00;1.00;;;;;22.93;46.58;103031.88;6399804;22;51537;-74
2024/02/19 01:40:13;;;;;;;;;1.00;0.33;;;;;22.93;46.52;103032.72;6399754;22;46754;-74
2024/02/19 01:42:38;;;;;;;;;2.00;1.00;;;;;22.89;46.50;103017.19;6399327;22;45350;-73
2024/02/19 01:45:06;;;;;;;;;2.00;2.00;;;;;22.89;46.29;103022.50;6399795;22;45216;-75
2024/02/19 01:47:33;;;;;;;;;1.00;1.00;;;;;22.93;46.53;103031.88;6400064;22;45275;-74
2024/02/19 01:49:59;;;;;;;;;2.00;2.00;;;;;22.87;46.05;103021.78;6400052;22;46300;-74
2024/02/19 01:52:25;;;;;;;;;1.00;1.00;;;;;22.92;46.43;103032.84;6400034;22;45173;-74
2024/02/19 01:54:51;;;;;;;;;1.00;1.00;;;;;22.77;46.04;103003.19;6399792;22;45221;-74
2024/02/19 01:57:17;;;;;;;;;2.00;2.00;;;;;22.92;46.19;103032.84;6399810;22;45437;-74
2024/02/19 01:59:44;;;;;;;;;3.33;1.00;;;;;22.83;46.09;103016.75;6399064;22;45332;-74
2024/02/19 02:02:12;;;;;;;;;3.33;2.33;;;;;22.83;46.15;103014.09;6399498;22;45355;-74
2024/02/19 02:04:38;;;;;;;;;2.00;1.33;;;;;22.90;46.11;103025.00;6400179;22;45230;-74
2024/02/19 02:07:03;;;;;;;;;2.67;1.00;;;;;22.83;46.26;103014.09;6399957;22;45255;-75
2024/02/19 02:09:30;;;;;;;;;2.33;2.00;;;;;22.91;46.01;103032.00;6399370;22;45968;-74
2024/02/19 02:11:55;;;;;;;;;1.00;1.00;;;;;22.91;45.90;103033.81;6399792;22;45207;-74
2024/02/19 02:14:20;;;;;;;;;4.00;2.00;;;;;22.91;46.27;103033.81;6399911;22;45208;-74
2024/02/19 02:16:46;;;;;;;;;1.00;1.00;;;;;22.91;46.25;103028.50;6398974;22;60537;-75
2024/02/19 02:19:12;;;;;;;;;4.00;1.00;;;;;22.91;45.81;103025.84;6399392;22;47142;-74
2024/02/19 02:21:41;;;;;;;;;0.00;0.00;;;;;22.83;46.15;103024.72;6399940;22;45346;-74
2024/02/19 02:24:06;;;;;;;;;2.67;1.33;;;;;22.91;46.44;103036.47;6399483;22;45296;-74
2024/02/19 02:26:37;;;;;;;;;2.00;1.00;;;;;22.90;45.92;103032.97;6399366;22;45359;-74
2024/02/19 02:29:02;;;;;;;;;1.00;1.00;;;;;22.79;46.07;103001.22;6399826;22;45401;-74
2024/02/19 02:31:29;;;;;;;;;2.00;2.00;;;;;22.90;46.41;103018.88;6399595;22;45264;-74
2024/02/19 02:33:54;;;;;;;;;1.00;1.00;;;;;22.89;46.44;103025.16;6400031;22;45326;-74
2024/02/19 02:36:20;;;;;;;;;4.33;3.00;;;;;22.88;46.49;103021.66;6399446;22;47834;-74
2024/02/19 02:38:46;;;;;;;;;3.67;2.33;;;;;22.90;46.45;103026.84;6399206;22;46836;-74
2024/02/19 02:41:11;;;;;;;;;5.00;1.33;;;;;22.82;46.13;103009.75;6399012;22;45288;-74
2024/02/19 02:43:36;;;;;;;;;1.33;1.33;;;;;22.91;46.24;103020.53;6399598;22;45341;-74
2024/02/19 02:46:02;;;;;;;;;1.00;1.00;;;;;22.89;46.35;103018.03;6370958;22;45423;-74
2024/02/19 02:48:28;;;;;;;;;1.00;1.00;;;;;22.90;45.91;103025.00;6399040;22;46863;-75
2024/02/19 02:50:53;;;;;;;;;1.33;1.33;;;;;22.83;45.91;103010.59;6399242;22;45192;-74
2024/02/19 02:53:21;;;;;;;;;1.33;1.00;;;;;22.90;46.01;103019.69;6399834;22;45406;-74
2024/02/19 02:55:46;;;;;;;;;2.00;2.00;;;;;22.90;45.72;103009.09;6398880;22;45416;-74
2024/02/19 02:58:11;;;;;;;;;1.00;1.00;;;;;22.88;46.07;103011.03;6399364;22;45368;-74
2024/02/19 03:00:37;;;;;;;;;1.00;1.00;;;;;22.90;45.70;103019.69;6399223;22;45343;-74
2024/02/19 03:03:02;;;;;;;;;2.00;2.00;;;;;22.88;45.84;103018.16;6399181;22;45306;-74
2024/02/19 03:05:27;;;;;;;;;2.00;1.00;;;;;22.90;46.30;103008.25;6370537;22;45498;-74
2024/02/19 03:07:53;;;;;;;;;2.00;0.00;;;;;22.61;46.04;102970.78;6398905;22;46229;-74
2024/02/19 03:10:18;;;;;;;;;1.00;1.00;;;;;22.80;45.47;103014.34;6398630;22;45275;-74
2024/02/19 03:12:43;;;;;;;;;3.00;1.00;;;;;22.89;46.27;102996.81;6400989;22;46514;-74
2024/02/19 03:15:09;;;;;;;;;2.00;2.00;;;;;22.88;45.76;103002.22;6400515;22;45423;-74
2024/02/19 03:17:34;;;;;;;;;3.00;1.00;;;;;22.89;45.59;103009.22;6400790;22;47127;-74
2024/02/19 03:19:59;;;;;;;;;4.00;2.00;;;;;22.88;46.22;103005.72;6400537;22;45379;-74
2024/02/19 03:22:25;;;;;;;;;1.00;0.00;;;;;22.86;46.14;102999.72;6400744;22;48055;-74
2024/02/19 03:24:51;;;;;;;;;0.33;0.33;;;;;22.88;45.93;103012.84;6400038;22;45508;-74
2024/02/19 03:27:16;;;;;;;;;1.67;1.00;;;;;22.80;46.02;103000.25;6400844;22;45270;-74
2024/02/19 03:29:41;;;;;;;;;3.00;2.00;;;;;22.85;46.15;103004.19;6400767;22;45374;-74
2024/02/19 03:32:07;;;;;;;;;1.67;1.67;;;;;22.80;45.76;103002.88;6400430;22;45269;-74
2024/02/19 03:34:32;;;;;;;;;2.33;1.67;;;;;22.75;45.83;102987.38;6400973;22;45435;-74
2024/02/19 03:36:57;;;;;;;;;2.00;2.00;;;;;22.83;45.78;103002.63;6400225;22;47297;-74
2024/02/19 03:39:22;;;;;;;;;1.00;1.00;;;;;22.60;46.25;102966.47;6399991;22;45280;-74
2024/02/19 03:41:49;;;;;;;;;0.67;0.67;;;;;22.87;46.04;103012.03;6400827;22;45306;-74
2024/02/19 03:44:15;;;;;;;;;3.00;1.00;;;;;22.88;45.58;103012.84;6400436;22;45266;-74
2024/02/19 03:46:40;;;;;;;;;2.67;2.00;;;;;22.84;45.62;103007.81;6371814;22;45954;-74
2024/02/19 03:49:06;;;;;;;;;1.67;1.33;;;;;22.87;45.73;103008.53;6400299;22;45176;-74
2024/02/19 03:51:31;;;;;;;;;3.33;3.00;;;;;22.87;45.47;103016.50;6400053;22;59323;-74
2024/02/19 03:53:56;;;;;;;;;1.33;1.33;;;;;22.87;45.77;103014.69;6400038;22;45220;-74
2024/02/19 03:56:22;;;;;;;;;2.33;2.33;;;;;22.83;46.19;103003.47;6400011;22;57135;-73
2024/02/19 03:58:47;;;;;;;;;1.33;0.00;;;;;22.87;46.04;103013.84;6400891;22;45220;-74
2024/02/19 04:01:13;;;;;;;;;2.00;2.00;;;;;22.88;45.82;103018.16;6400426;22;49762;-74
2024/02/19 04:03:38;;;;;;;;;2.00;1.00;;;;;22.87;46.09;103014.69;6400332;22;45327;-74
2024/02/19 04:06:04;;;;;;;;;1.67;1.67;;;;;22.79;45.75;103017.16;6400057;22;46312;-74
2024/02/19 04:08:32;;;;;;;;;1.00;1.00;;;;;22.80;45.81;103021.47;6400452;22;45273;-74
2024/02/19 04:10:57;;;;;;;;;2.00;2.00;;;;;22.87;45.60;103022.66;6400836;22;45190;-74
2024/02/19 04:13:22;;;;;;;;;1.00;1.00;;;;;22.88;45.49;103018.16;6400330;22;49780;-74
2024/02/19 04:15:48;;;;;;;;;2.67;2.00;;;;;22.86;46.04;103013.00;6399881;22;47234;-74
2024/02/19 04:18:13;;;;;;;;;1.67;1.67;;;;;22.88;45.34;103012.84;6400673;22;45322;-75
2024/02/19 04:20:38;;;;;;;;;2.00;1.00;;;;;22.88;45.80;103007.53;6400932;22;45247;-74
2024/02/19 04:23:04;;;;;;;;;2.00;2.00;;;;;22.79;45.73;102991.47;6399581;22;45082;-74
2024/02/19 04:25:29;;;;;;;;;2.00;2.00;;;;;22.87;45.50;103017.34;6399962;22;46856;-74
2024/02/19 04:27:54;;;;;;;;;1.67;1.00;;;;;22.87;45.36;103017.34;6399763;22;54181;-75
2024/02/19 04:30:19;;;;;;;;;1.67;1.67;;;;;22.87;45.44;103017.34;6400243;22;50416;-72
2024/02/19 04:32:45;;;;;;;;;1.67;1.67;;;;;22.77;46.01;103011.97;6400402;22;45478;-74
2024/02/19 04:35:11;;;;;;;;;2.00;2.00;;;;;22.86;45.81;103026.25;6400381;22;46739;-74
2024/02/19 04:37:36;;;;;;;;;2.33;2.00;;;;;22.87;45.92;103029.75;6400303;22;45251;-75
2024/02/19 04:40:02;;;;;;;;;1.00;1.00;;;;;22.60;45.85;102994.81;6400243;22;45160;-73
2024/02/19 04:42:28;;;;;;;;;3.00;1.33;;;;;22.85;45.48;103044.00;6399969;22;45438;-73
2024/02/19 04:44:53;;;;;;;;;2.00;1.00;;;;;22.87;45.83;103043.03;6400171;22;46051;-75
2024/02/19 04:47:18;;;;;;;;;1.33;1.00;;;;;22.87;45.48;103045.69;6400325;22;48785;-74
2024/02/19 04:49:44;;;;;;;;;3.00;1.67;;;;;22.85;45.99;103051.94;6400323;22;45405;-72
2024/02/19 04:52:09;;;;;;;;;2.00;2.00;;;;;22.86;45.82;103050.16;6400212;22;45312;-74
2024/02/19 04:54:34;;;;;;;;;1.33;0.33;;;;;22.79;46.02;103044.53;6399404;22;58180;-74
2024/02/19 04:56:59;;;;;;;;;3.33;2.00;;;;;22.85;45.54;103065.22;6400413;22;45305;-74
2024/02/19 04:59:25;;;;;;;;;1.33;1.33;;;;;22.72;45.60;103046.84;6400441;22;47398;-75
2024/02/19 05:01:50;;;;;;;;;1.00;1.00;;;;;22.78;45.33;103049.97;6400061;22;45487;-73
2024/02/19 05:04:18;;;;;;;;;1.00;1.00;;;;;22.85;45.77;103057.25;6399579;22;46375;-74
2024/02/19 05:06:43;;;;;;;;;3.00;2.00;;;;;22.82;45.66;103054.88;6399472;22;45293;-74
2024/02/19 05:09:08;;;;;;;;;2.00;2.00;;;;;22.82;45.53;103054.88;6400446;22;45255;-74
2024/02/19 05:11:33;;;;;;;;;1.00;1.00;;;;;22.86;45.44;103058.09;6399959;22;55711;-75
2024/02/19 05:13:59;;;;;;;;;1.67;1.67;;;;;22.73;45.45;103031.78;6400183;22;45935;-74
2024/02/19 05:16:24;;;;;;;;;1.67;1.00;;;;;22.85;45.45;103054.59;6400431;22;45227;-74
2024/02/19 05:18:49;;;;;;;;;3.00;2.00;;;;;22.86;45.40;103031.56;6400434;22;45222;-74
2024/02/19 05:21:15;;;;;;;;;1.00;1.00;;;;;22.86;45.20;103028.91;6399859;22;45146;-74
2024/02/19 05:23:40;;;;;;;;;2.33;2.33;;;;;22.85;45.23;103021.91;6400159;22;46266;-74
2024/02/19 05:26:06;;;;;;;;;2.00;1.67;;;;;22.77;45.21;103013.78;6399871;22;45160;-74
2024/02/19 05:28:32;;;;;;;;;3.00;3.00;;;;;22.87;45.77;103032.41;6400462;22;45205;-74
2024/02/19 05:30:57;;;;;;;;;2.67;1.67;;;;;22.87;45.54;103037.72;6399992;22;45278;-74
2024/02/19 05:33:23;;;;;;;;;3.00;2.00;;;;;22.76;45.06;103018.25;6399121;22;46163;-74
2024/02/19 05:35:49;;;;;;;;;0.67;0.67;;;;;22.80;45.38;103022.31;6399485;22;49209;-74
2024/02/19 05:38:14;;;;;;;;;1.33;1.00;;;;;22.79;45.25;103019.81;6400421;22;45225;-74
2024/02/19 05:40:39;;;;;;;;;1.00;1.00;;;;;22.87;45.29;103027.94;6399365;22;55131;-74
2024/02/19 05:43:05;;;;;;;;;1.33;1.33;;;;;22.85;45.22;103022.75;6400171;22;46660;-74
2024/02/19 05:45:30;;;;;;;;;1.33;1.33;;;;;22.81;45.20;103025.81;6399829;22;45716;-73
2024/02/19 05:47:56;;;;;;;;;2.00;2.00;;;;;22.82;45.24;103038.13;6400386;22;45263;-74
2024/02/19 05:50:22;;;;;;;;;3.00;2.00;;;;;22.82;45.64;103035.47;6399932;22;45258;-74
2024/02/19 05:52:47;;;;;;;;;3.00;2.00;;;;;22.80;45.11;103034.75;6399559;22;46163;-74
2024/02/19 05:55:12;;;;;;;;;1.67;1.67;;;;;22.85;44.99;103046.66;6400051;22;45215;-74
2024/02/19 05:57:38;;;;;;;;;1.00;1.00;;;;;22.84;45.56;103054.75;6399996;22;45248;-74
2024/02/19 06:00:05;;;;;;;;;2.00;2.00;;;;;22.74;45.09;103044.91;6399829;22;45082;-74
2024/02/19 06:02:31;;;;;;;;;1.00;1.00;;;;;22.84;45.53;103054.75;6399582;22;46111;-74
2024/02/19 06:04:56;;;;;;;;;1.00;1.00;;;;;22.81;45.05;103053.19;6370592;22;45227;-74
2024/02/19 06:07:21;;;;;;;;;2.00;1.00;;;;;22.85;45.17;103040.50;6399922;22;45245;-74
2024/02/19 06:09:47;;;;;;;;;1.00;1.00;;;;;22.54;45.66;102987.38;6400315;22;45223;-75
2024/02/19 06:12:13;;;;;;;;;1.67;1.00;;;;;22.84;45.53;103026.41;6399409;22;47174;-74
2024/02/19 06:14:38;;;;;;;;;1.33;1.33;;;;;22.83;45.40;103021.22;6399997;22;45314;-74
2024/02/19 06:17:03;;;;;;;;;1.00;1.00;;;;;22.84;45.61;103023.75;6399674;22;45308;-74
2024/02/19 06:19:29;;;;;;;;;2.00;1.00;;;;;22.52;45.23;102976.91;6399013;22;45338;-74
2024/02/19 06:21:54;;;;;;;;;1.00;1.00;;;;;22.83;44.93;103043.28;6399784;22;45324;-74
2024/02/19 06:24:19;;;;;;;;;2.50;0.00;;;;;22.83;45.09;103037.97;6399067;22;57818;-74
2024/02/19 06:26:45;;;;;;;;;1.00;1.00;;;;;22.83;45.01;103032.66;6399658;22;51910;-74
2024/02/19 06:29:10;;;;;;;;;1.00;1.00;;;;;22.70;45.42;103002.84;6399646;22;45439;-76
2024/02/19 06:31:37;;;;;;;;;2.33;2.00;;;;;22.79;45.03;103025.97;6399273;22;46195;-76
2024/02/19 06:34:03;;;;;;;;;1.67;1.00;;;;;22.74;45.51;103010.41;6399089;22;45233;-77
2024/02/19 06:36:28;;;;;;;;;2.00;2.00;;;;;22.86;45.69;103023.59;6399770;22;45296;-76
2024/02/19 06:38:53;;;;;;;;;1.67;1.67;;;;;22.82;45.40;103020.38;6399138;22;45255;-75
2024/02/19 06:41:19;;;;;;;;;1.00;1.00;;;;;22.81;45.25;103021.34;6398400;22;45460;-76
2024/02/19 06:43:44;;;;;;;;;2.67;2.00;;;;;22.87;45.74;103025.28;6398743;22;59669;-76
2024/02/19 06:46:14;;;;;;;;;1.00;1.00;;;;;22.80;45.88;103029.44;6400586;22;45286;-75
2024/02/19 06:48:40;;;;;;;;;2.00;2.00;;;;;22.84;45.80;103029.06;6399995;22;45357;-79
2024/02/19 06:51:05;;;;;;;;;2.00;2.00;;;;;22.88;45.98;103016.34;6400573;22;45820;-76
2024/02/19 06:53:30;;;;;;;;;1.00;1.00;;;;;22.90;45.44;103001.13;6400855;22;45310;-76
2024/02/19 06:55:56;;;;;;;;;2.33;1.00;;;;;22.91;46.00;102983.38;6400369;22;45392;-76
2024/02/19 06:58:21;;;;;;;;;2.67;2.33;;;;;22.88;45.69;102973.88;6400744;22;45323;-76
2024/02/19 07:00:47;;;;;;;;;1.00;1.00;;;;;22.91;45.97;102970.13;6400070;22;46008;-75
2024/02/19 07:03:13;;;;;;;;;2.67;1.67;;;;;22.82;45.40;102951.34;6400297;22;45293;-75
2024/02/19 07:05:38;;;;;;;;;4.67;2.00;;;;;22.92;45.47;102966.50;6400621;22;45255;-75
2024/02/19 07:08:03;;;;;;;;;1.00;1.00;;;;;22.91;46.09;102951.53;6401224;22;45154;-75
2024/02/19 07:10:29;;;;;;;;;3.00;0.67;;;;;22.88;45.80;102951.78;6400123;22;45169;-75
2024/02/19 07:12:54;;;;;;;;;0.33;0.33;;;;;22.86;45.98;102954.59;6400724;22;50743;-75
2024/02/19 07:15:19;;;;;;;;;1.00;1.00;;;;;22.85;45.81;102956.41;6400376;22;57761;-76
2024/02/19 07:17:45;;;;;;;;;1.67;1.67;;;;;22.89;45.61;102954.34;6400275;22;45330;-75
2024/02/19 07:20:10;;;;;;;;;3.00;1.00;;;;;22.81;45.53;102944.38;6400437;22;46187;-85
2024/02/19 07:22:35;;;;;;;;;1.00;1.00;;;;;22.89;45.81;102964.09;6401068;22;45323;-75
2024/02/19 07:25:01;;;;;;;;;3.00;1.00;;;;;22.89;45.69;102956.13;6400495;22;45324;-75
2024/02/19 07:27:26;;;;;;;;;1.00;1.00;;;;;22.90;45.80;102947.22;6401442;22;45191;-76
2024/02/19 07:29:53;;;;;;;;;2.00;1.00;;;;;22.90;46.24;102948.03;6400245;22;46187;-75
2024/02/19 07:32:19;;;;;;;;;2.00;2.00;;;;;22.87;46.24;102950.13;6400027;22;45353;-75
2024/02/19 07:34:44;;;;;;;;;2.00;2.00;;;;;22.90;46.26;102971.09;6400993;22;45367;-75
2024/02/19 07:37:10;;;;;;;;;1.00;1.00;;;;;22.89;45.99;102980.88;6400458;22;45300;-75
2024/02/19 07:39:39;;;;;;;;;1.00;1.00;;;;;22.87;45.92;102998.75;6409751;22;66139;-75
2024/02/19 07:42:04;;;;;;;;;1.67;1.67;;;;;22.90;45.76;103024.19;6400335;22;45294;-75
2024/02/19 07:44:30;;;;;;;;;3.67;2.00;;;;;22.89;45.68;103036.63;6400643;22;45169;-76
2024/02/19 07:46:56;;;;;;;;;1.33;1.33;;;;;22.88;45.75;103045.53;6400149;22;45403;-76
2024/02/19 07:49:21;;;;;;;;;2.00;2.00;;;;;22.89;46.22;103036.63;6400169;22;60662;-75
2024/02/19 07:51:46;;;;;;;;;1.00;1.00;;;;;22.88;45.72;103032.28;6400135;22;49499;-75
2024/02/19 07:54:12;;;;;;;;;4.33;3.00;;;;;22.89;45.92;103033.13;6400790;22;45070;-75
2024/02/19 07:56:37;;;;;;;;;2.00;2.00;;;;;22.79;45.69;103041.03;6400147;22;45472;-75
2024/02/19 07:59:02;;;;;;;;;2.00;2.00;;;;;22.75;45.89;103032.47;6400144;22;47087;-75
2024/02/19 08:01:28;;;;;;;;;2.00;2.00;;;;;22.89;46.03;103063.16;6400314;22;45262;-76
2024/02/19 08:03:53;;;;;;;;;3.33;2.00;;;;;22.88;45.85;103055.31;6400686;22;45225;-77
2024/02/19 08:06:18;;;;;;;;;1.00;1.00;;;;;22.87;45.85;103054.50;6400521;22;48596;-76
2024/02/19 08:08:43;;;;;;;;;2.00;2.00;;;;;22.34;46.15;102988.13;6399980;22;46976;-75
2024/02/19 08:11:09;;;;;;;;;3.67;2.00;;;;;22.87;45.60;103057.16;6400353;22;50334;-77
2024/02/19 08:13:35;;;;;;;;;3.67;2.33;;;;;22.88;45.55;103073.88;6400706;22;45221;-76
2024/02/19 08:16:00;;;;;;;;;3.67;2.00;;;;;22.88;46.19;103081.84;6399899;22;45428;-76
2024/02/19 08:18:26;;;;;;;;;2.33;2.00;;;;;22.87;45.82;103074.88;6400417;22;46911;-76
2024/02/19 08:20:51;;;;;;;;;1.67;1.67;;;;;22.86;45.59;103071.38;6400066;22;45398;-77
2024/02/19 08:23:18;;;;;;;;;2.33;2.33;;;;;22.87;45.65;103075.72;6400491;22;45409;-76
2024/02/19 08:25:44;;;;;;;;;3.00;2.00;;;;;22.76;45.94;103065.19;6400482;22;45414;-75
2024/02/19 08:28:10;;;;;;;;;3.00;3.00;;;;;22.82;46.12;103086.72;6400119;22;47173;-76
2024/02/19 08:30:35;;;;;;;;;2.67;2.67;;;;;22.86;45.60;103097.91;6400471;22;45226;-77
2024/02/19 08:33:00;;;;;;;;;3.00;1.67;;;;;22.87;45.84;103101.44;6400064;22;56308;-75
2024/02/19 08:35:25;;;;;;;;;2.67;2.00;;;;;22.85;46.20;103097.06;6400708;22;45406;-77
2024/02/19 08:37:51;;;;;;;;;1.00;1.00;;;;;22.71;45.93;103077.03;6400458;22;46088;-76
2024/02/19 08:40:16;;;;;;;;;2.00;2.00;;;;;22.87;46.04;103106.72;6400252;22;45240;-76
2024/02/19 08:42:41;;;;;;;;;3.00;3.00;;;;;22.85;46.12;103097.06;6400943;22;45266;-76
2024/02/19 08:45:08;;;;;;;;;2.67;1.00;;;;;22.70;45.81;103067.38;6400093;22;45434;-76
2024/02/19 08:47:34;;;;;;;;;1.33;1.33;;;;;22.87;45.88;103089.00;6371494;22;47135;-77
2024/02/19 08:49:59;;;;;;;;;2.00;2.00;;;;;22.88;45.74;103092.47;6399989;22;45385;-76
2024/02/19 08:52:25;;;;;;;;;2.00;2.00;;;;;22.87;45.50;103086.34;6400774;22;45552;-75
2024/02/19 08:54:50;;;;;;;;;2.33;1.00;;;;;22.85;45.53;103099.72;6400446;22;45249;-76
2024/02/19 08:57:16;;;;;;;;;3.67;2.00;;;;;22.87;45.94;103090.81;6399903;22;46897;-76
2024/02/19 08:59:45;;;;;;;;;1.00;1.00;;;;;22.74;45.75;103073.28;6400021;22;45466;-75
2024/02/19 09:02:12;;;;;;;;;1.00;1.00;;;;;22.81;45.87;103087.69;6399996;22;45216;-75
2024/02/19 09:04:40;;;;;;;;;3.00;3.00;;;;;22.69;45.89;103068.31;6399901;22;45409;-75
2024/02/19 09:07:06;;;;;;;;;1.00;1.00;;;;;22.85;45.95;103088.25;6400301;22;46652;-76
2024/02/19 09:09:31;;;;;;;;;1.00;1.00;;;;;22.85;45.53;103093.56;6398840;22;53050;-76
2024/02/19 09:11:56;;;;;;;;;2.00;2.00;;;;;22.84;45.75;103106.03;6400052;22;55391;-75
2024/02/19 09:14:21;;;;;;;;;1.00;1.00;;;;;22.83;45.96;103096.38;6400031;22;45416;-75
2024/02/19 09:16:47;;;;;;;;;1.33;1.33;;;;;22.84;46.11;103103.38;6399131;22;71549;-75
2024/02/19 09:19:14;;;;;;;;;0.00;0.00;;;;;22.80;46.05;103104.59;6399926;22;45193;-76
2024/02/19 09:21:39;;;;;;;;;1.00;1.00;;;;;22.81;45.43;103094.81;6400049;22;45228;-75
2024/02/19 09:24:04;;;;;;;;;1.00;1.00;;;;;22.82;46.04;103101.81;6399862;22;45426;-75
2024/02/19 09:26:30;;;;;;;;;1.67;1.67;;;;;22.85;45.46;103101.53;6400243;22;45846;-75
2024/02/19 09:28:55;;;;;;;;;2.00;2.00;;;;;22.84;45.77;103103.38;6399592;22;52511;-76
2024/02/19 09:31:23;;;;;;;;;1.00;1.00;;;;;22.85;46.04;103099.72;6399977;22;46079;-75
2024/02/19 09:33:48;;;;;;;;;0.67;0.67;;;;;22.85;45.58;103102.38;6399965;22;45501;-75
2024/02/19 09:36:17;;;;;;;;;1.00;1.00;;;;;22.79;45.65;103092.31;6399742;22;47310;-75
2024/02/19 09:38:42;;;;;;;;;1.67;1.67;;;;;22.85;45.61;103107.69;6399977;22;45326;-76
2024/02/19 09:41:08;;;;;;;;;0.00;0.00;;;;;22.82;45.53;103101.81;6399828;22;45251;-78
2024/02/19 09:43:33;;;;;;;;;1.00;1.00;;;;;22.86;45.28;103113.84;6400230;22;45359;-75
2024/02/19 09:46:03;;;;;;;;;2.00;2.00;;;;;22.86;45.78;103103.22;6399720;22;45990;-76
2024/02/19 09:48:31;;;;;;;;;6.00;2.00;;;;;22.87;45.55;103104.06;6400124;22;45312;-76
2024/02/19 09:51:00;;;;;;;;;2.00;0.33;;;;;22.85;45.74;103113.00;6400225;22;45239;-77
2024/02/19 09:53:29;;;;;;;;;1.00;1.00;;;;;22.83;45.75;103106.13;6400490;22;45474;-76
2024/02/19 09:55:55;;;;;;;;;2.50;2.50;;;;;22.80;45.82;103101.09;6399703;22;45354;-76
2024/02/19 09:58:21;;;;;;;;;1.67;1.67;;;;;22.85;45.40;103110.34;6371160;22;45375;-76
2024/02/19 10:00:47;;;;;;;;;2.33;1.00;;;;;22.85;45.56;103122.78;6399329;22;59864;-76
2024/02/19 10:03:17;;;;;;;;;1.67;1.00;;;;;22.83;45.24;103128.22;6400253;22;45271;-75
2024/02/19 10:05:42;;;;;;;;;1.00;1.00;;;;;22.64;45.56;103099.69;6399849;22;45605;-76
2024/02/19 10:08:12;;;;;;;;;1.00;1.00;;;;;22.84;45.47;103129.91;6399905;22;45272;-76
2024/02/19 10:10:40;;;;;;;;;1.00;1.00;;;;;22.81;45.36;103114.25;6399633;22;45528;-74
2024/02/19 10:13:07;;;;;;;;;2.00;2.00;;;;;22.66;45.69;103081.88;6399509;22;45470;-76
2024/02/19 10:15:32;;;;;;;;;1.00;1.00;;;;;22.79;45.42;103094.13;6399469;22;46306;-75
2024/02/19 10:17:59;;;;;;;;;1.00;1.00;;;;;22.65;45.66;103071.34;6399740;22;53306;-74
2024/02/19 10:20:24;;;;;;;;;0.00;0.00;;;;;22.83;45.32;103108.78;6399858;22;45401;-75
2024/02/19 10:22:49;;;;;;;;;2.00;2.00;;;;;22.82;45.25;103107.94;6400077;22;45240;-77
2024/02/19 10:25:16;;;;;;;;;1.00;1.00;;;;;22.82;45.89;103118.56;6399261;22;45298;-76
2024/02/19 10:27:43;;;;;;;;;1.00;1.00;;;;;22.80;45.16;103109.06;6399659;22;45347;-76
2024/02/19 10:30:12;;;;;;;;;2.67;2.33;;;;;22.84;45.25;103107.84;6399530;22;45236;-76
2024/02/19 10:32:41;;;;;;;;;3.00;2.00;;;;;22.84;45.45;103108.69;6399419;22;45217;-76
2024/02/19 10:35:06;;;;;;;;;1.33;1.33;;;;;22.83;45.39;103093.72;6399279;22;46247;-76
2024/02/19 10:37:32;;;;;;;;;1.00;1.00;;;;;22.79;45.11;103079.03;6399549;22;45291;-76
2024/02/19 10:39:58;;;;;;;;;3.00;2.00;;;;;22.71;45.51;103062.91;6398994;22;45164;-76
2024/02/19 10:42:24;;;;;;;;;2.00;1.00;;;;;22.83;45.70;103077.78;6399407;22;45348;-74
2024/02/19 10:44:50;;;;;;;;;2.00;1.00;;;;;22.66;45.59;103049.19;6398824;22;45319;-76
2024/02/19 10:47:16;;;;;;;;;2.00;1.00;;;;;22.82;45.57;103070.78;6399336;22;45283;-75
2024/02/19 10:49:49;;;;;;;;;1.33;1.33;;;;;22.76;45.74;103066.03;6399890;22;45241;-75
2024/02/19 10:52:14;;;;;;;;;1.00;1.00;;;;;22.83;45.69;103090.22;6399285;22;45141;-75
2024/02/19 10:54:42;;;;;;;;;2.00;2.00;;;;;22.79;45.74;103084.34;6399017;22;45176;-75
2024/02/19 10:57:07;;;;;;;;;2.00;1.00;;;;;22.69;45.09;103065.66;6398107;22;45384;-77
2024/02/19 10:59:34;;;;;;;;;1.00;1.00;;;;;22.82;45.59;103086.72;6399494;22;45361;-76
2024/02/19 11:02:08;;;;;;;;;1.67;1.67;;;;;22.84;45.29;103086.59;6399425;22;45467;-76
2024/02/19 11:04:34;;;;;;;;;1.33;1.33;;;;;22.65;45.29;103058.94;6398859;22;47198;-76
2024/02/19 11:07:01;;;;;;;;;0.67;0.67;;;;;22.74;45.59;103082.06;6398844;22;45361;-75
2024/02/19 11:09:33;;;;;;;;;1.00;1.00;;;;;22.71;45.24;103082.34;6398703;22;45301;-76
2024/02/19 11:12:00;;;;;;;;;2.00;1.00;;;;;22.74;45.01;103079.41;6399100;22;45282;-75
2024/02/19 11:14:33;;;;;;;;;1.00;1.00;;;;;22.79;45.60;103086.16;6398771;22;47205;-76
2024/02/19 11:17:02;;;;;;;;;2.67;1.00;;;;;22.72;45.92;103086.66;6399317;22;45290;-75